createdAt,value
2019-03-12T00:01:19.586Z,6.40
2019-03-12T00:03:57.987Z,5.37
2019-03-12T00:06:34.452Z,3.25
2019-03-12T00:09:11.350Z,4.70
2019-03-12T00:11:48.385Z,1.93
2019-03-12T00:14:25.577Z,2.87
2019-03-12T00:17:01.929Z,3.77
2019-03-12T00:19:37.955Z,5.10
2019-03-12T00:22:13.685Z,2.90
2019-03-12T00:24:51.092Z,4.95
2019-03-12T00:27:26.975Z,2.75
2019-03-12T00:30:03.501Z,2.70
2019-03-12T00:32:39.249Z,3.42
2019-03-12T00:35:15.102Z,2.35
2019-03-12T00:37:51.815Z,4.25
2019-03-12T00:40:27.711Z,5.53
2019-03-12T00:43:04.005Z,2.23
2019-03-12T00:45:39.939Z,4.03
2019-03-12T00:48:15.949Z,4.33
2019-03-12T00:50:52.297Z,4.28
2019-03-12T00:53:29.090Z,2.90
2019-03-12T00:56:05.942Z,2.90
2019-03-12T00:58:42.132Z,1.57
2019-03-12T01:01:17.941Z,4.33
2019-03-12T01:03:53.746Z,3.60
2019-03-12T01:06:29.993Z,4.28
2019-03-12T01:09:08.084Z,3.90
2019-03-12T01:11:45.336Z,2.58
2019-03-12T01:14:21.874Z,4.08
2019-03-12T01:16:59.385Z,2.90
2019-03-12T01:19:35.727Z,2.83
2019-03-12T01:22:12.658Z,1.55
2019-03-12T01:24:49.166Z,3.33
2019-03-12T01:27:25.873Z,3.05
2019-03-12T01:30:03.666Z,3.02
2019-03-12T01:32:40.398Z,2.95
2019-03-12T01:35:17.099Z,3.12
2019-03-12T01:37:53.477Z,3.90
2019-03-12T01:40:30.558Z,2.22
2019-03-12T01:43:06.898Z,3.77
2019-03-12T01:45:43.586Z,2.37
2019-03-12T01:48:19.992Z,2.40
2019-03-12T01:50:56.500Z,3.35
2019-03-12T01:53:32.950Z,2.47
2019-03-12T01:56:09.712Z,2.25
2019-03-12T01:58:45.591Z,2.20
2019-03-12T02:01:21.486Z,3.72
2019-03-12T02:03:58.201Z,2.13
2019-03-12T02:06:35.056Z,2.92
2019-03-12T02:09:11.407Z,2.52
2019-03-12T02:11:48.688Z,2.85
2019-03-12T02:14:26.934Z,4.13
2019-03-12T02:17:04.403Z,2.13
2019-03-12T02:19:41.059Z,4.60
2019-03-12T02:22:17.728Z,5.08
2019-03-12T02:24:53.929Z,3.95
2019-03-12T02:27:30.565Z,2.40
2019-03-12T02:30:08.521Z,4.23
2019-03-12T02:32:45.400Z,2.27
2019-03-12T02:35:22.233Z,2.17
2019-03-12T02:37:58.839Z,3.12
2019-03-12T02:40:35.924Z,2.83
2019-03-12T02:43:11.736Z,3.22
2019-03-12T02:45:59.747Z,2.92
2019-03-12T02:48:36.242Z,3.62
2019-03-12T02:51:12.364Z,2.22
2019-03-12T02:53:48.950Z,2.72
2019-03-12T02:56:24.612Z,2.85
2019-03-12T02:59:00.285Z,3.12
2019-03-12T03:01:36.448Z,2.05
2019-03-12T03:04:12.184Z,1.87
2019-03-12T03:07:10.986Z,7.33
2019-03-12T03:09:47.632Z,5.25
2019-03-12T03:12:24.357Z,4.62
2019-03-12T03:15:13.151Z,7.22
2019-03-12T03:17:50.217Z,8.00
2019-03-12T03:20:26.517Z,7.47
2019-03-12T03:23:03.576Z,6.70
2019-03-12T03:25:39.461Z,4.95
2019-03-12T03:28:16.662Z,3.50
2019-03-12T03:30:53.732Z,8.17
2019-03-12T03:33:30.547Z,3.80
2019-03-12T03:36:06.673Z,5.12
2019-03-12T03:38:43.958Z,7.30
2019-03-12T03:41:20.314Z,5.93
2019-03-12T03:43:56.658Z,4.50
2019-03-12T03:46:32.944Z,3.55
2019-03-12T03:49:08.846Z,3.50
2019-03-12T03:51:46.050Z,5.63
2019-03-12T03:54:22.471Z,7.03
2019-03-12T03:56:58.765Z,5.67
2019-03-12T03:59:34.543Z,4.70
2019-03-12T04:02:11.430Z,3.13
2019-03-12T04:04:47.372Z,4.30
2019-03-12T04:07:24.236Z,5.50
2019-03-12T04:10:00.982Z,5.30
2019-03-12T04:12:37.599Z,4.80
2019-03-12T04:15:15.137Z,3.10
2019-03-12T04:17:52.338Z,3.03
2019-03-12T04:20:28.366Z,5.03
2019-03-12T04:23:04.030Z,4.67
2019-03-12T04:25:40.816Z,3.90
2019-03-12T04:28:17.501Z,4.57
2019-03-12T04:30:53.449Z,3.47
2019-03-12T04:34:16.860Z,2.17
2019-03-12T04:36:53.560Z,6.22
2019-03-12T04:39:29.738Z,4.10
2019-03-12T04:42:06.127Z,4.20
2019-03-12T04:44:42.856Z,5.00
2019-03-12T04:47:19.181Z,5.27
2019-03-12T04:49:55.501Z,3.63
2019-03-12T04:52:31.331Z,7.40
2019-03-12T04:55:07.601Z,10.67
2019-03-12T04:57:43.414Z,4.20
2019-03-12T05:00:19.733Z,4.53
2019-03-12T05:02:56.721Z,5.37
2019-03-12T05:05:33.401Z,7.73
2019-03-12T05:08:28.484Z,3.43
2019-03-12T05:11:05.120Z,4.33
2019-03-12T05:13:41.147Z,6.37
2019-03-12T05:16:17.529Z,3.97
2019-03-12T05:18:53.916Z,3.80
2019-03-12T05:21:30.496Z,5.87
2019-03-12T05:24:07.369Z,7.07
2019-03-12T05:26:43.709Z,4.77
2019-03-12T05:29:20.265Z,5.03
2019-03-12T05:31:56.629Z,4.83
2019-03-12T05:34:32.507Z,3.67
2019-03-12T05:37:08.952Z,6.47
2019-03-12T05:39:45.714Z,10.80
2019-03-12T05:42:22.783Z,5.33
2019-03-12T05:44:58.905Z,6.27
2019-03-12T05:47:35.224Z,4.97
2019-03-12T05:50:12.446Z,4.93
2019-03-12T05:52:49.605Z,4.63
2019-03-12T05:55:25.422Z,4.30
2019-03-12T05:58:02.304Z,4.77
2019-03-12T06:00:39.318Z,5.17
2019-03-12T06:03:15.556Z,3.33
2019-03-12T06:05:51.558Z,4.80
2019-03-12T06:08:27.980Z,5.87
2019-03-12T06:11:05.103Z,4.63
2019-03-12T06:13:41.329Z,3.30
2019-03-12T06:16:17.680Z,2.97
2019-03-12T06:18:54.082Z,2.73
2019-03-12T06:21:30.310Z,5.77
2019-03-12T06:24:07.390Z,4.93
2019-03-12T06:26:43.936Z,12.73
2019-03-12T06:29:21.172Z,8.33
2019-03-12T06:32:23.254Z,11.73
2019-03-12T06:35:04.291Z,18.20
2019-03-12T06:37:59.693Z,19.37
2019-03-12T06:40:44.723Z,10.40
2019-03-12T06:43:40.793Z,8.27
2019-03-12T06:46:39.198Z,10.30
2019-03-12T06:49:50.392Z,9.33
2019-03-12T06:52:36.742Z,8.65
2019-03-12T06:55:22.644Z,9.77
2019-03-12T06:58:20.669Z,11.67
2019-03-12T07:01:08.195Z,7.35
2019-03-12T07:04:16.257Z,22.53
2019-03-12T07:07:12.998Z,14.27
2019-03-12T07:09:59.744Z,14.73
2019-03-12T07:12:49.634Z,10.67
2019-03-12T07:15:45.225Z,21.02
2019-03-12T07:18:42.841Z,10.97
2019-03-12T07:21:44.111Z,8.90
2019-03-12T07:24:55.579Z,9.50
2019-03-12T07:27:40.528Z,8.40
2019-03-12T07:30:28.558Z,10.20
2019-03-12T07:33:23.073Z,11.43
2019-03-12T07:36:33.917Z,8.87
2019-03-12T07:39:32.547Z,6.60
2019-03-12T07:42:15.570Z,21.53
2019-03-12T07:45:26.165Z,11.15
2019-03-12T07:48:42.683Z,9.13
2019-03-12T07:51:50.625Z,10.98
2019-03-12T07:54:48.004Z,14.95
2019-03-12T07:57:47.757Z,6.57
2019-03-12T08:00:39.509Z,12.55
2019-03-12T08:03:25.069Z,9.95
2019-03-12T08:06:23.537Z,8.80
2019-03-12T08:09:19.278Z,6.90
2019-03-12T08:12:04.123Z,7.62
2019-03-12T08:14:47.081Z,7.17
2019-03-12T08:17:48.800Z,9.95
2019-03-12T08:20:49.988Z,8.18
2019-03-12T08:23:30.812Z,7.72
2019-03-12T08:26:17.159Z,7.92
2019-03-12T08:28:59.935Z,7.58
2019-03-12T08:31:58.563Z,12.30
2019-03-12T08:34:53.800Z,9.30
2019-03-12T08:37:46.745Z,10.40
2019-03-12T08:41:01.006Z,7.67
2019-03-12T08:43:50.276Z,8.43
2019-03-12T08:46:54.085Z,9.10
2019-03-12T08:49:49.416Z,8.78
2019-03-12T08:52:44.533Z,5.55
2019-03-12T08:55:38.662Z,5.42
2019-03-12T08:58:46.122Z,6.45
2019-03-12T09:01:29.565Z,4.55
2019-03-12T09:04:23.425Z,4.87
2019-03-12T09:07:18.794Z,5.67
2019-03-12T09:10:18.184Z,6.53
2019-03-12T09:13:14.105Z,5.28
2019-03-12T09:16:09.129Z,7.25
2019-03-12T09:19:10.857Z,3.92
2019-03-12T09:22:00.004Z,5.47
2019-03-12T09:24:54.784Z,6.05
2019-03-12T09:27:44.538Z,6.37
2019-03-12T09:30:46.225Z,5.80
2019-03-12T09:33:32.776Z,8.40
2019-03-12T09:36:32.756Z,5.53
2019-03-12T09:39:35.262Z,6.10
2019-03-12T09:42:21.010Z,5.33
2019-03-12T09:45:16.637Z,3.20
2019-03-12T09:48:17.674Z,4.45
2019-03-12T09:51:13.135Z,6.42
2019-03-12T09:54:17.891Z,6.05
2019-03-12T09:57:00.586Z,5.80
2019-03-12T10:00:14.963Z,5.92
2019-03-12T10:02:58.972Z,3.25
2019-03-12T10:06:04.024Z,5.20
2019-03-12T10:08:52.910Z,3.22
2019-03-12T10:11:39.373Z,3.98
2019-03-12T10:14:43.900Z,3.33
2019-03-12T10:17:46.006Z,4.33
2019-03-12T10:20:43.699Z,5.62
2019-03-12T10:23:38.112Z,2.98
2019-03-12T10:26:36.920Z,3.77
2019-03-12T10:29:30.560Z,3.35
2019-03-12T10:32:15.161Z,2.83
2019-03-12T10:34:59.282Z,4.97
2019-03-12T10:37:50.717Z,5.05
2019-03-12T10:40:49.078Z,3.47
2019-03-12T10:43:47.684Z,3.75
2019-03-12T10:46:49.285Z,3.05
2019-03-12T10:49:36.891Z,3.58
2019-03-12T10:52:04.965Z,3.17
2019-03-12T10:54:42.040Z,3.90
2019-03-12T10:57:21.438Z,3.00
2019-03-12T10:59:56.680Z,3.15
2019-03-12T11:02:33.221Z,3.35
2019-03-12T11:05:09.762Z,2.80
2019-03-12T11:07:46.431Z,3.98
2019-03-12T11:10:22.760Z,4.05
2019-03-12T11:12:59.655Z,6.22
2019-03-12T11:15:35.518Z,3.42
2019-03-12T11:18:11.870Z,2.70
2019-03-12T11:20:47.967Z,2.37
2019-03-12T11:23:24.526Z,3.17
2019-03-12T11:26:00.530Z,2.45
2019-03-12T11:28:36.573Z,3.15
2019-03-12T11:31:12.976Z,3.40
2019-03-12T11:33:49.190Z,3.35
2019-03-12T11:36:25.384Z,2.83
2019-03-12T11:39:01.620Z,2.80
2019-03-12T11:41:38.110Z,3.30
2019-03-12T11:44:14.135Z,4.25
2019-03-12T11:46:50.397Z,2.22
2019-03-12T11:49:27.156Z,4.28
2019-03-12T11:52:02.916Z,2.95
2019-03-12T11:54:38.893Z,3.80
2019-03-12T11:57:15.317Z,2.92
2019-03-12T11:59:52.300Z,3.52
2019-03-12T12:02:28.384Z,4.25
2019-03-12T12:05:05.512Z,3.00
2019-03-12T12:07:41.837Z,4.22
2019-03-12T12:10:18.527Z,3.47
2019-03-12T12:12:54.753Z,3.65
2019-03-12T12:15:31.943Z,2.50
2019-03-12T12:18:08.001Z,3.65
2019-03-12T12:20:43.726Z,4.08
2019-03-12T12:23:19.859Z,2.60
2019-03-12T12:25:55.947Z,3.25
2019-03-12T12:28:32.220Z,3.20
2019-03-12T12:31:08.564Z,2.62
2019-03-12T12:33:44.671Z,2.47
2019-03-12T12:36:31.463Z,2.93
2019-03-12T12:39:08.379Z,3.25
2019-03-12T12:41:45.144Z,3.75
2019-03-12T12:44:21.576Z,3.92
2019-03-12T12:46:57.695Z,3.12
2019-03-12T12:49:34.008Z,5.10
2019-03-12T12:52:10.550Z,2.70
2019-03-12T12:54:46.421Z,4.37
2019-03-12T12:57:23.521Z,5.53
2019-03-12T12:59:59.389Z,2.90
2019-03-12T13:02:35.660Z,3.42
2019-03-12T13:05:12.186Z,3.77
2019-03-12T13:07:49.501Z,3.20
2019-03-12T13:10:26.291Z,4.67
2019-03-12T13:13:02.374Z,3.90
2019-03-12T13:15:39.513Z,3.40
2019-03-12T13:18:16.766Z,4.53
2019-03-12T13:20:53.358Z,3.90
2019-03-12T13:23:29.240Z,3.05
2019-03-12T13:26:06.495Z,2.87
2019-03-12T13:28:45.018Z,3.20
2019-03-12T13:31:21.410Z,3.43
2019-03-12T13:33:57.517Z,4.40
2019-03-12T13:36:33.812Z,3.58
2019-03-12T13:39:11.005Z,4.58
2019-03-12T13:41:47.325Z,3.47
2019-03-12T13:44:23.658Z,4.58
2019-03-12T13:46:59.441Z,2.83
2019-03-12T13:49:35.820Z,4.33
2019-03-12T13:52:11.985Z,8.40
2019-03-12T13:54:48.208Z,14.60
2019-03-12T13:57:24.833Z,5.92
2019-03-12T14:00:00.921Z,5.70
2019-03-12T14:02:37.475Z,5.67
2019-03-12T14:05:14.588Z,5.65
2019-03-12T14:07:50.698Z,10.30
2019-03-12T14:10:26.811Z,5.85
2019-03-12T14:13:03.409Z,4.65
2019-03-12T14:15:39.576Z,15.23
2019-03-12T14:18:16.279Z,10.68
2019-03-12T14:20:54.849Z,17.30
2019-03-12T14:23:34.671Z,16.13
2019-03-12T14:26:10.522Z,12.85
2019-03-12T14:28:46.965Z,12.50
2019-03-12T14:31:23.559Z,6.33
2019-03-12T14:34:01.061Z,9.97
2019-03-12T14:36:37.654Z,11.03
2019-03-12T14:39:13.481Z,8.93
2019-03-12T14:41:49.985Z,10.87
2019-03-12T14:44:27.014Z,7.80
2019-03-12T14:47:06.169Z,6.60
2019-03-12T14:49:42.620Z,6.25
2019-03-12T14:52:24.696Z,6.07
2019-03-12T14:55:00.878Z,11.78
2019-03-12T14:57:36.813Z,7.77
2019-03-12T15:00:23.797Z,7.47
2019-03-12T15:02:59.721Z,10.15
2019-03-12T15:05:35.878Z,6.10
2019-03-12T15:08:13.272Z,7.55
2019-03-12T15:10:49.628Z,5.60
2019-03-12T15:13:27.066Z,6.77
2019-03-12T15:16:04.209Z,7.17
2019-03-12T15:18:40.361Z,5.58
2019-03-12T15:21:17.302Z,4.33
2019-03-12T15:23:54.105Z,5.53
2019-03-12T15:26:30.589Z,5.20
2019-03-12T15:29:07.076Z,5.78
2019-03-12T15:31:43.296Z,4.70
2019-03-12T15:34:19.418Z,4.63
2019-03-12T15:36:56.307Z,11.50
2019-03-12T15:39:32.721Z,7.73
2019-03-12T15:42:09.855Z,8.13
2019-03-12T15:44:45.719Z,9.87
2019-03-12T15:47:22.740Z,4.37
2019-03-12T15:49:59.165Z,5.60
2019-03-12T15:52:35.296Z,6.40
2019-03-12T15:55:12.664Z,4.65
2019-03-12T15:57:48.623Z,4.40
2019-03-12T16:00:24.534Z,5.67
2019-03-12T16:03:01.561Z,8.40
2019-03-12T16:05:37.960Z,4.37
2019-03-12T16:08:14.768Z,4.80
2019-03-12T16:10:58.012Z,11.20
2019-03-12T16:13:29.428Z,8.95
2019-03-12T16:16:05.745Z,6.25
2019-03-12T16:18:42.333Z,7.07
2019-03-12T16:21:18.032Z,10.23
2019-03-12T16:23:55.008Z,7.28
2019-03-12T16:26:32.133Z,6.00
2019-03-12T16:29:08.698Z,10.50
2019-03-12T16:31:44.918Z,14.85
2019-03-12T16:34:21.372Z,10.20
2019-03-12T16:36:57.493Z,13.78
2019-03-12T16:39:33.289Z,20.77
2019-03-12T16:42:10.111Z,14.80
2019-03-12T16:44:45.891Z,11.88
2019-03-12T16:47:23.285Z,12.85
2019-03-12T16:49:59.933Z,10.03
2019-03-12T16:52:35.906Z,13.87
2019-03-12T16:55:11.655Z,10.87
2019-03-12T16:57:48.528Z,12.15
2019-03-12T17:00:25.661Z,11.95
2019-03-12T17:03:02.130Z,17.77
2019-03-12T17:05:38.330Z,19.67
2019-03-12T17:08:14.379Z,29.60
2019-03-12T17:10:59.799Z,17.92
2019-03-12T17:13:29.453Z,19.50
2019-03-12T17:16:05.806Z,13.87
2019-03-12T17:18:42.106Z,14.55
2019-03-12T17:21:18.782Z,9.60
2019-03-12T17:23:59.082Z,14.07
2019-03-12T17:26:35.977Z,8.43
2019-03-12T17:29:13.016Z,11.35
2019-03-12T17:31:49.264Z,17.02
2019-03-12T17:34:35.163Z,9.77
2019-03-12T17:37:03.616Z,10.70
2019-03-12T17:39:40.345Z,10.43
2019-03-12T17:42:16.380Z,9.55
2019-03-12T17:44:52.892Z,22.35
2019-03-12T17:47:28.928Z,17.23
2019-03-12T17:50:07.291Z,12.33
2019-03-12T17:52:44.285Z,10.13
2019-03-12T17:55:20.650Z,13.03
2019-03-12T17:57:57.654Z,12.35
2019-03-12T18:00:34.239Z,11.05
2019-03-12T18:03:10.525Z,12.77
2019-03-12T18:05:47.089Z,8.15
2019-03-12T18:08:23.557Z,12.35
2019-03-12T18:11:00.149Z,9.37
2019-03-12T18:13:36.867Z,9.60
2019-03-12T18:16:14.029Z,9.80
2019-03-12T18:18:50.078Z,7.97
2019-03-12T18:21:26.048Z,8.00
2019-03-12T18:24:02.817Z,12.37
2019-03-12T18:26:39.412Z,7.60
2019-03-12T18:29:15.919Z,8.47
2019-03-12T18:31:52.806Z,7.70
2019-03-12T18:34:31.242Z,8.70
2019-03-12T18:37:07.325Z,6.67
2019-03-12T18:39:44.604Z,9.20
2019-03-12T18:42:21.032Z,9.50
2019-03-12T18:44:57.627Z,15.98
2019-03-12T18:47:33.689Z,10.67
2019-03-12T18:50:11.739Z,8.07
2019-03-12T18:52:47.754Z,6.47
2019-03-12T18:55:43.035Z,6.80
2019-03-12T18:58:19.897Z,8.45
2019-03-12T19:00:56.386Z,8.25
2019-03-12T19:03:32.977Z,6.45
2019-03-12T19:06:10.225Z,5.70
2019-03-12T19:08:48.375Z,7.97
2019-03-12T19:11:24.420Z,4.63
2019-03-12T19:14:01.270Z,9.43
2019-03-12T19:16:38.008Z,4.70
2019-03-12T19:19:14.913Z,6.30
2019-03-12T19:21:50.996Z,8.28
2019-03-12T19:24:27.270Z,6.63
2019-03-12T19:27:05.261Z,4.35
2019-03-12T19:29:42.241Z,7.80
2019-03-12T19:32:35.528Z,6.03
2019-03-12T19:35:14.444Z,8.27
2019-03-12T19:37:50.912Z,4.53
2019-03-12T19:40:27.817Z,4.10
2019-03-12T19:43:04.333Z,4.70
2019-03-12T19:45:40.392Z,3.35
2019-03-12T19:48:17.505Z,3.80
2019-03-12T19:50:53.530Z,4.10
2019-03-12T19:53:29.917Z,4.12
2019-03-12T19:56:06.242Z,7.40
2019-03-12T19:58:43.168Z,3.67
2019-03-12T20:01:20.485Z,3.23
2019-03-12T20:03:59.205Z,3.33
2019-03-12T20:06:35.496Z,2.70
2019-03-12T20:09:15.929Z,4.87
2019-03-12T20:12:33.282Z,3.35
2019-03-12T20:16:06.280Z,7.30
2019-03-12T20:19:11.873Z,6.17
2019-03-12T20:22:15.101Z,3.77
2019-03-12T20:25:40.208Z,3.27
2019-03-12T20:28:54.723Z,4.07
2019-03-12T20:32:06.938Z,2.77
2019-03-12T20:35:20.004Z,3.33
2019-03-12T20:38:51.737Z,2.27
2019-03-12T20:42:11.885Z,4.20
2019-03-12T20:45:40.533Z,3.03
2019-03-12T20:49:09.982Z,2.40
2019-03-12T20:52:46.261Z,4.73
2019-03-12T20:56:13.829Z,2.27
2019-03-12T20:59:30.170Z,2.17
2019-03-12T21:02:55.088Z,2.43
2019-03-12T21:06:06.811Z,3.67
2019-03-12T21:09:19.988Z,2.03
2019-03-12T21:12:44.564Z,3.43
2019-03-12T21:15:50.276Z,4.60
2019-03-12T21:19:35.083Z,1.67
2019-03-12T21:22:35.022Z,1.27
2019-03-12T21:25:40.370Z,1.47
2019-03-12T21:29:19.437Z,3.77
2019-03-12T21:32:01.551Z,1.67
2019-03-12T21:34:38.049Z,2.27
2019-03-12T21:37:16.645Z,2.83
2019-03-12T21:39:56.209Z,1.27
2019-03-12T21:42:43.171Z,2.63
2019-03-12T21:45:19.467Z,3.60
2019-03-12T21:47:55.410Z,3.10
2019-03-12T21:50:31.430Z,3.87
2019-03-12T21:53:07.892Z,3.17
2019-03-12T21:55:43.576Z,1.87
2019-03-12T21:58:20.687Z,2.03
2019-03-12T22:00:56.530Z,5.83
2019-03-12T22:03:33.482Z,5.22
2019-03-12T22:06:09.465Z,5.60
2019-03-12T22:08:46.319Z,22.20
2019-03-12T22:11:23.525Z,26.10
2019-03-12T22:13:59.666Z,26.33
2019-03-12T22:16:36.471Z,22.70
2019-03-12T22:19:12.807Z,24.07
2019-03-12T22:22:10.524Z,20.00
2019-03-12T22:24:46.533Z,27.33
2019-03-12T22:27:23.348Z,22.70
2019-03-12T22:29:59.556Z,18.63
2019-03-12T22:32:36.563Z,22.97
2019-03-12T22:35:12.534Z,21.60
2019-03-12T22:37:48.974Z,20.08
2019-03-12T22:40:26.629Z,19.27
2019-03-12T22:43:02.950Z,21.42
2019-03-12T22:45:40.126Z,16.17
2019-03-12T22:48:16.398Z,24.07
2019-03-12T22:50:52.990Z,20.90
2019-03-12T22:53:29.565Z,17.13
2019-03-12T22:56:05.892Z,15.93
2019-03-12T22:58:42.397Z,17.48
2019-03-12T23:01:21.467Z,16.87
2019-03-12T23:03:58.035Z,16.83
2019-03-12T23:06:33.740Z,14.37
2019-03-12T23:09:10.232Z,15.13
2019-03-12T23:11:47.393Z,15.55
2019-03-12T23:14:24.750Z,11.70
2019-03-12T23:17:00.924Z,17.17
2019-03-12T23:19:39.394Z,14.33
2019-03-12T23:22:15.291Z,15.43
2019-03-12T23:24:51.900Z,15.53
2019-03-12T23:27:28.918Z,14.00
2019-03-12T23:30:07.113Z,12.67
2019-03-12T23:32:44.976Z,15.27
2019-03-12T23:35:21.661Z,13.17
2019-03-12T23:37:58.107Z,13.73
2019-03-12T23:40:37.472Z,12.67
2019-03-12T23:43:14.425Z,15.88
2019-03-12T23:45:50.873Z,16.33
2019-03-12T23:48:28.618Z,9.83
2019-03-12T23:51:04.485Z,10.30
2019-03-12T23:53:41.234Z,12.43
2019-03-12T23:56:18.602Z,9.65
2019-03-12T23:58:55.909Z,9.70
